sensor_id;sensor_type;location;lat;lon;timestamp;P1;durP1;ratioP1;P2;durP2;ratioP2
19446;SDS011;9862;49.462;11.054;2023-02-22T00:01:08;13.15;;;8.38;;
19446;SDS011;9862;49.462;11.054;2023-02-22T00:03:46;12.02;;;7.75;;
19446;SDS011;9862;49.462;11.054;2023-02-22T00:06:14;13.75;;;8.13;;
19446;SDS011;9862;49.462;11.054;2023-02-22T00:08:42;11.10;;;6.93;;
19446;SDS011;9862;49.462;11.054;2023-02-22T00:11:09;12.48;;;7.20;;
19446;SDS011;9862;49.462;11.054;2023-02-22T00:13:36;10.98;;;7.15;;
19446;SDS011;9862;49.462;11.054;2023-02-22T00:16:03;10.80;;;6.65;;
19446;SDS011;9862;49.462;11.054;2023-02-22T00:18:31;8.50;;;6.18;;
19446;SDS011;9862;49.462;11.054;2023-02-22T00:20:59;9.65;;;5.78;;
19446;SDS011;9862;49.462;11.054;2023-02-22T00:23:27;8.15;;;5.28;;
19446;SDS011;9862;49.462;11.054;2023-02-22T00:25:55;6.85;;;5.30;;
19446;SDS011;9862;49.462;11.054;2023-02-22T00:28:23;9.25;;;6.15;;
19446;SDS011;9862;49.462;11.054;2023-02-22T00:30:51;6.13;;;4.72;;
19446;SDS011;9862;49.462;11.054;2023-02-22T00:33:18;10.23;;;4.97;;
19446;SDS011;9862;49.462;11.054;2023-02-22T00:35:45;6.85;;;4.72;;
19446;SDS011;9862;49.462;11.054;2023-02-22T00:38:14;7.00;;;4.75;;
19446;SDS011;9862;49.462;11.054;2023-02-22T00:40:43;6.45;;;5.05;;
19446;SDS011;9862;49.462;11.054;2023-02-22T00:43:10;7.93;;;5.50;;
19446;SDS011;9862;49.462;11.054;2023-02-22T00:45:36;7.25;;;5.28;;
19446;SDS011;9862;49.462;11.054;2023-02-22T00:48:04;8.43;;;4.55;;
19446;SDS011;9862;49.462;11.054;2023-02-22T00:50:31;6.85;;;4.85;;
19446;SDS011;9862;49.462;11.054;2023-02-22T00:52:59;7.05;;;5.28;;
19446;SDS011;9862;49.462;11.054;2023-02-22T00:55:29;7.30;;;5.13;;
19446;SDS011;9862;49.462;11.054;2023-02-22T00:57:57;11.50;;;5.55;;
19446;SDS011;9862;49.462;11.054;2023-02-22T01:00:26;10.55;;;5.75;;
19446;SDS011;9862;49.462;11.054;2023-02-22T01:02:55;10.68;;;5.97;;
19446;SDS011;9862;49.462;11.054;2023-02-22T01:05:22;7.47;;;5.65;;
19446;SDS011;9862;49.462;11.054;2023-02-22T01:07:51;9.02;;;6.25;;
19446;SDS011;9862;49.462;11.054;2023-02-22T01:10:19;10.48;;;5.53;;
19446;SDS011;9862;49.462;11.054;2023-02-22T01:12:48;9.02;;;5.47;;
19446;SDS011;9862;49.462;11.054;2023-02-22T01:15:15;8.32;;;5.55;;
19446;SDS011;9862;49.462;11.054;2023-02-22T01:17:46;8.80;;;5.63;;
19446;SDS011;9862;49.462;11.054;2023-02-22T01:20:13;9.18;;;5.95;;
19446;SDS011;9862;49.462;11.054;2023-02-22T01:22:42;9.65;;;5.72;;
19446;SDS011;9862;49.462;11.054;2023-02-22T01:25:10;8.52;;;5.35;;
19446;SDS011;9862;49.462;11.054;2023-02-22T01:27:41;11.02;;;5.70;;
19446;SDS011;9862;49.462;11.054;2023-02-22T01:30:12;8.18;;;6.18;;
19446;SDS011;9862;49.462;11.054;2023-02-22T01:32:40;9.10;;;5.45;;
19446;SDS011;9862;49.462;11.054;2023-02-22T01:35:07;6.50;;;5.05;;
19446;SDS011;9862;49.462;11.054;2023-02-22T01:37:37;8.23;;;5.15;;
19446;SDS011;9862;49.462;11.054;2023-02-22T01:40:05;6.03;;;4.75;;
19446;SDS011;9862;49.462;11.054;2023-02-22T01:42:34;8.07;;;5.25;;
19446;SDS011;9862;49.462;11.054;2023-02-22T01:48:07;6.57;;;4.85;;
19446;SDS011;9862;49.462;11.054;2023-02-22T01:50:38;6.47;;;5.07;;
19446;SDS011;9862;49.462;11.054;2023-02-22T01:53:07;8.30;;;5.25;;
19446;SDS011;9862;49.462;11.054;2023-02-22T01:55:36;6.78;;;5.05;;
19446;SDS011;9862;49.462;11.054;2023-02-22T01:58:03;7.05;;;4.90;;
19446;SDS011;9862;49.462;11.054;2023-02-22T02:00:32;6.80;;;4.43;;
19446;SDS011;9862;49.462;11.054;2023-02-22T02:03:00;7.03;;;5.03;;
19446;SDS011;9862;49.462;11.054;2023-02-22T02:05:33;7.07;;;5.25;;
19446;SDS011;9862;49.462;11.054;2023-02-22T02:08:04;8.20;;;5.30;;
19446;SDS011;9862;49.462;11.054;2023-02-22T02:10:41;8.07;;;5.63;;
19446;SDS011;9862;49.462;11.054;2023-02-22T02:13:09;6.88;;;4.75;;
19446;SDS011;9862;49.462;11.054;2023-02-22T02:15:35;6.82;;;5.82;;
19446;SDS011;9862;49.462;11.054;2023-02-22T02:18:04;7.53;;;5.13;;
19446;SDS011;9862;49.462;11.054;2023-02-22T02:20:36;7.10;;;4.88;;
19446;SDS011;9862;49.462;11.054;2023-02-22T02:23:12;9.90;;;5.75;;
19446;SDS011;9862;49.462;11.054;2023-02-22T02:28:57;9.55;;;6.20;;
19446;SDS011;9862;49.462;11.054;2023-02-22T02:32:00;9.63;;;6.20;;
19446;SDS011;9862;49.462;11.054;2023-02-22T02:34:46;10.18;;;6.95;;
19446;SDS011;9862;49.462;11.054;2023-02-22T02:37:19;8.73;;;5.95;;
19446;SDS011;9862;49.462;11.054;2023-02-22T02:39:56;10.05;;;7.13;;
19446;SDS011;9862;49.462;11.054;2023-02-22T02:42:30;11.45;;;7.15;;
19446;SDS011;9862;49.462;11.054;2023-02-22T02:45:04;10.13;;;6.18;;
19446;SDS011;9862;49.462;11.054;2023-02-22T02:47:36;8.07;;;5.82;;
19446;SDS011;9862;49.462;11.054;2023-02-22T02:50:07;8.88;;;6.03;;
19446;SDS011;9862;49.462;11.054;2023-02-22T02:52:38;7.50;;;5.82;;
19446;SDS011;9862;49.462;11.054;2023-02-22T02:55:06;9.57;;;6.13;;
19446;SDS011;9862;49.462;11.054;2023-02-22T02:57:35;8.98;;;5.82;;
19446;SDS011;9862;49.462;11.054;2023-02-22T03:00:02;10.90;;;6.43;;
19446;SDS011;9862;49.462;11.054;2023-02-22T03:02:48;8.43;;;6.03;;
19446;SDS011;9862;49.462;11.054;2023-02-22T03:05:36;10.48;;;6.68;;
19446;SDS011;9862;49.462;11.054;2023-02-22T03:08:17;11.10;;;7.05;;
19446;SDS011;9862;49.462;11.054;2023-02-22T03:10:51;10.70;;;6.75;;
19446;SDS011;9862;49.462;11.054;2023-02-22T03:13:27;8.77;;;5.70;;
19446;SDS011;9862;49.462;11.054;2023-02-22T03:16:01;8.38;;;5.40;;
19446;SDS011;9862;49.462;11.054;2023-02-22T03:18:40;7.55;;;5.38;;
19446;SDS011;9862;49.462;11.054;2023-02-22T03:21:16;8.70;;;6.15;;
19446;SDS011;9862;49.462;11.054;2023-02-22T03:23:50;12.80;;;7.88;;
19446;SDS011;9862;49.462;11.054;2023-02-22T03:26:28;17.08;;;9.30;;
19446;SDS011;9862;49.462;11.054;2023-02-22T03:29:00;13.48;;;8.27;;
19446;SDS011;9862;49.462;11.054;2023-02-22T03:31:30;11.93;;;8.23;;
19446;SDS011;9862;49.462;11.054;2023-02-22T03:34:03;14.50;;;8.90;;
19446;SDS011;9862;49.462;11.054;2023-02-22T03:36:34;12.65;;;9.45;;
19446;SDS011;9862;49.462;11.054;2023-02-22T03:39:06;14.55;;;9.15;;
19446;SDS011;9862;49.462;11.054;2023-02-22T03:41:40;16.40;;;10.05;;
19446;SDS011;9862;49.462;11.054;2023-02-22T03:44:10;15.05;;;9.70;;
19446;SDS011;9862;49.462;11.054;2023-02-22T03:46:39;20.08;;;10.82;;
19446;SDS011;9862;49.462;11.054;2023-02-22T03:49:10;15.88;;;9.63;;
19446;SDS011;9862;49.462;11.054;2023-02-22T03:51:44;11.80;;;8.40;;
19446;SDS011;9862;49.462;11.054;2023-02-22T03:54:11;12.70;;;8.50;;
19446;SDS011;9862;49.462;11.054;2023-02-22T03:56:42;14.88;;;8.82;;
19446;SDS011;9862;49.462;11.054;2023-02-22T03:59:14;12.35;;;7.70;;
19446;SDS011;9862;49.462;11.054;2023-02-22T04:01:41;11.60;;;8.15;;
19446;SDS011;9862;49.462;11.054;2023-02-22T04:04:07;13.93;;;8.75;;
19446;SDS011;9862;49.462;11.054;2023-02-22T04:06:35;13.68;;;8.98;;
19446;SDS011;9862;49.462;11.054;2023-02-22T04:09:02;12.95;;;8.15;;
19446;SDS011;9862;49.462;11.054;2023-02-22T04:11:29;12.80;;;8.18;;
19446;SDS011;9862;49.462;11.054;2023-02-22T04:13:55;10.93;;;7.35;;
19446;SDS011;9862;49.462;11.054;2023-02-22T04:16:22;9.45;;;6.85;;
19446;SDS011;9862;49.462;11.054;2023-02-22T04:18:48;10.10;;;6.25;;
19446;SDS011;9862;49.462;11.054;2023-02-22T04:21:15;9.55;;;6.47;;
19446;SDS011;9862;49.462;11.054;2023-02-22T04:23:43;12.98;;;8.27;;
19446;SDS011;9862;49.462;11.054;2023-02-22T04:26:09;34.63;;;16.83;;
19446;SDS011;9862;49.462;11.054;2023-02-22T04:28:36;27.90;;;16.13;;
19446;SDS011;9862;49.462;11.054;2023-02-22T04:31:03;12.63;;;8.27;;
19446;SDS011;9862;49.462;11.054;2023-02-22T04:33:29;9.65;;;6.50;;
19446;SDS011;9862;49.462;11.054;2023-02-22T04:35:56;10.00;;;5.57;;
19446;SDS011;9862;49.462;11.054;2023-02-22T04:38:23;8.07;;;6.03;;
19446;SDS011;9862;49.462;11.054;2023-02-22T04:40:52;9.50;;;5.60;;
19446;SDS011;9862;49.462;11.054;2023-02-22T04:43:19;9.05;;;5.90;;
19446;SDS011;9862;49.462;11.054;2023-02-22T04:45:46;8.30;;;5.93;;
19446;SDS011;9862;49.462;11.054;2023-02-22T04:48:13;6.88;;;5.38;;
19446;SDS011;9862;49.462;11.054;2023-02-22T04:50:39;8.57;;;5.55;;
19446;SDS011;9862;49.462;11.054;2023-02-22T04:53:06;8.15;;;6.07;;
19446;SDS011;9862;49.462;11.054;2023-02-22T04:55:32;8.75;;;5.93;;
19446;SDS011;9862;49.462;11.054;2023-02-22T04:58:00;8.10;;;6.22;;
19446;SDS011;9862;49.462;11.054;2023-02-22T05:00:27;9.70;;;5.88;;
19446;SDS011;9862;49.462;11.054;2023-02-22T05:02:53;8.20;;;6.15;;
19446;SDS011;9862;49.462;11.054;2023-02-22T05:05:20;7.60;;;5.97;;
19446;SDS011;9862;49.462;11.054;2023-02-22T05:07:47;9.48;;;6.32;;
19446;SDS011;9862;49.462;11.054;2023-02-22T05:10:14;7.72;;;5.95;;
19446;SDS011;9862;49.462;11.054;2023-02-22T05:12:41;8.20;;;6.22;;
19446;SDS011;9862;49.462;11.054;2023-02-22T05:15:09;9.43;;;6.00;;
19446;SDS011;9862;49.462;11.054;2023-02-22T05:17:36;9.85;;;6.40;;
19446;SDS011;9862;49.462;11.054;2023-02-22T05:20:03;9.65;;;6.30;;
19446;SDS011;9862;49.462;11.054;2023-02-22T05:22:32;8.68;;;5.82;;
19446;SDS011;9862;49.462;11.054;2023-02-22T05:25:00;9.52;;;6.22;;
19446;SDS011;9862;49.462;11.054;2023-02-22T05:27:27;8.95;;;6.28;;
19446;SDS011;9862;49.462;11.054;2023-02-22T05:29:53;9.68;;;6.55;;
19446;SDS011;9862;49.462;11.054;2023-02-22T05:32:22;11.48;;;7.07;;
19446;SDS011;9862;49.462;11.054;2023-02-22T05:34:48;11.88;;;6.57;;
19446;SDS011;9862;49.462;11.054;2023-02-22T05:37:15;11.68;;;6.30;;
19446;SDS011;9862;49.462;11.054;2023-02-22T05:39:41;10.43;;;6.18;;
19446;SDS011;9862;49.462;11.054;2023-02-22T05:42:10;8.43;;;5.93;;
19446;SDS011;9862;49.462;11.054;2023-02-22T05:44:37;10.07;;;6.28;;
19446;SDS011;9862;49.462;11.054;2023-02-22T05:47:03;7.55;;;5.18;;
19446;SDS011;9862;49.462;11.054;2023-02-22T05:49:31;9.75;;;6.55;;
19446;SDS011;9862;49.462;11.054;2023-02-22T05:51:57;9.10;;;5.80;;
19446;SDS011;9862;49.462;11.054;2023-02-22T05:54:24;8.32;;;6.15;;
19446;SDS011;9862;49.462;11.054;2023-02-22T05:56:50;7.90;;;5.75;;
19446;SDS011;9862;49.462;11.054;2023-02-22T05:59:17;8.63;;;5.95;;
19446;SDS011;9862;49.462;11.054;2023-02-22T06:01:44;8.95;;;5.88;;
19446;SDS011;9862;49.462;11.054;2023-02-22T06:04:11;9.50;;;6.13;;
19446;SDS011;9862;49.462;11.054;2023-02-22T06:06:39;11.30;;;7.25;;
19446;SDS011;9862;49.462;11.054;2023-02-22T06:09:05;14.75;;;9.10;;
19446;SDS011;9862;49.462;11.054;2023-02-22T06:11:32;10.23;;;7.05;;
19446;SDS011;9862;49.462;11.054;2023-02-22T06:13:58;10.38;;;5.95;;
19446;SDS011;9862;49.462;11.054;2023-02-22T06:16:25;6.72;;;5.00;;
19446;SDS011;9862;49.462;11.054;2023-02-22T06:18:52;9.82;;;5.30;;
19446;SDS011;9862;49.462;11.054;2023-02-22T06:21:18;6.55;;;5.05;;
19446;SDS011;9862;49.462;11.054;2023-02-22T06:23:46;7.07;;;4.72;;
19446;SDS011;9862;49.462;11.054;2023-02-22T06:26:14;7.97;;;4.63;;
19446;SDS011;9862;49.462;11.054;2023-02-22T06:28:41;6.88;;;4.70;;
19446;SDS011;9862;49.462;11.054;2023-02-22T06:31:08;6.47;;;4.30;;
19446;SDS011;9862;49.462;11.054;2023-02-22T06:33:34;9.00;;;5.38;;
19446;SDS011;9862;49.462;11.054;2023-02-22T06:36:01;7.05;;;4.28;;
19446;SDS011;9862;49.462;11.054;2023-02-22T06:38:27;6.18;;;4.25;;
19446;SDS011;9862;49.462;11.054;2023-02-22T06:40:55;5.90;;;4.45;;
19446;SDS011;9862;49.462;11.054;2023-02-22T06:43:22;8.25;;;4.72;;
19446;SDS011;9862;49.462;11.054;2023-02-22T06:45:49;8.65;;;4.72;;
19446;SDS011;9862;49.462;11.054;2023-02-22T06:48:16;7.25;;;4.35;;
19446;SDS011;9862;49.462;11.054;2023-02-22T06:50:43;5.63;;;4.10;;
19446;SDS011;9862;49.462;11.054;2023-02-22T06:53:09;6.80;;;4.90;;
19446;SDS011;9862;49.462;11.054;2023-02-22T06:55:36;6.28;;;4.25;;
19446;SDS011;9862;49.462;11.054;2023-02-22T06:58:04;5.60;;;3.88;;
19446;SDS011;9862;49.462;11.054;2023-02-22T07:00:30;5.97;;;3.90;;
19446;SDS011;9862;49.462;11.054;2023-02-22T07:02:58;8.73;;;4.18;;
19446;SDS011;9862;49.462;11.054;2023-02-22T07:05:25;8.73;;;4.82;;
19446;SDS011;9862;49.462;11.054;2023-02-22T07:07:54;6.47;;;4.07;;
19446;SDS011;9862;49.462;11.054;2023-02-22T07:10:27;5.32;;;4.00;;
19446;SDS011;9862;49.462;11.054;2023-02-22T07:12:55;6.75;;;4.32;;
19446;SDS011;9862;49.462;11.054;2023-02-22T07:15:24;6.60;;;4.63;;
19446;SDS011;9862;49.462;11.054;2023-02-22T07:17:52;7.63;;;4.22;;
19446;SDS011;9862;49.462;11.054;2023-02-22T07:20:20;8.77;;;5.15;;
19446;SDS011;9862;49.462;11.054;2023-02-22T07:22:48;8.80;;;5.18;;
19446;SDS011;9862;49.462;11.054;2023-02-22T07:25:15;7.53;;;4.60;;
19446;SDS011;9862;49.462;11.054;2023-02-22T07:27:42;6.72;;;5.15;;
19446;SDS011;9862;49.462;11.054;2023-02-22T07:30:14;7.85;;;4.40;;
19446;SDS011;9862;49.462;11.054;2023-02-22T07:32:44;10.00;;;4.40;;
19446;SDS011;9862;49.462;11.054;2023-02-22T07:35:15;8.52;;;4.88;;
19446;SDS011;9862;49.462;11.054;2023-02-22T07:37:42;12.02;;;5.60;;
19446;SDS011;9862;49.462;11.054;2023-02-22T07:40:09;8.77;;;5.10;;
19446;SDS011;9862;49.462;11.054;2023-02-22T07:42:49;10.07;;;5.45;;
19446;SDS011;9862;49.462;11.054;2023-02-22T07:45:20;7.10;;;4.65;;
19446;SDS011;9862;49.462;11.054;2023-02-22T07:47:50;7.00;;;4.38;;
19446;SDS011;9862;49.462;11.054;2023-02-22T07:50:18;10.88;;;5.43;;
19446;SDS011;9862;49.462;11.054;2023-02-22T07:52:46;9.90;;;5.45;;
19446;SDS011;9862;49.462;11.054;2023-02-22T07:55:14;8.10;;;5.35;;
19446;SDS011;9862;49.462;11.054;2023-02-22T07:57:43;8.43;;;5.47;;
19446;SDS011;9862;49.462;11.054;2023-02-22T08:00:11;10.27;;;5.10;;
19446;SDS011;9862;49.462;11.054;2023-02-22T08:02:39;7.75;;;4.90;;
19446;SDS011;9862;49.462;11.054;2023-02-22T08:05:08;7.97;;;4.60;;
19446;SDS011;9862;49.462;11.054;2023-02-22T08:07:37;8.80;;;5.32;;
19446;SDS011;9862;49.462;11.054;2023-02-22T08:10:04;8.13;;;5.13;;
19446;SDS011;9862;49.462;11.054;2023-02-22T08:12:31;7.80;;;5.95;;
19446;SDS011;9862;49.462;11.054;2023-02-22T08:14:58;9.70;;;6.13;;
19446;SDS011;9862;49.462;11.054;2023-02-22T08:17:25;12.45;;;7.15;;
19446;SDS011;9862;49.462;11.054;2023-02-22T08:19:51;12.98;;;6.35;;
19446;SDS011;9862;49.462;11.054;2023-02-22T08:22:19;11.02;;;5.95;;
19446;SDS011;9862;49.462;11.054;2023-02-22T08:24:46;9.88;;;6.40;;
19446;SDS011;9862;49.462;11.054;2023-02-22T08:27:12;8.05;;;5.85;;
19446;SDS011;9862;49.462;11.054;2023-02-22T08:29:39;10.50;;;6.00;;
19446;SDS011;9862;49.462;11.054;2023-02-22T08:32:05;13.68;;;6.88;;
19446;SDS011;9862;49.462;11.054;2023-02-22T08:34:32;14.50;;;6.75;;
19446;SDS011;9862;49.462;11.054;2023-02-22T08:36:58;9.88;;;6.82;;
19446;SDS011;9862;49.462;11.054;2023-02-22T08:39:26;9.65;;;5.80;;
19446;SDS011;9862;49.462;11.054;2023-02-22T08:41:52;9.20;;;6.00;;
19446;SDS011;9862;49.462;11.054;2023-02-22T08:44:19;9.77;;;6.20;;
19446;SDS011;9862;49.462;11.054;2023-02-22T08:46:48;8.60;;;6.47;;
19446;SDS011;9862;49.462;11.054;2023-02-22T08:49:15;12.35;;;6.68;;
19446;SDS011;9862;49.462;11.054;2023-02-22T08:51:42;13.93;;;7.95;;
19446;SDS011;9862;49.462;11.054;2023-02-22T08:54:09;14.05;;;7.68;;
19446;SDS011;9862;49.462;11.054;2023-02-22T08:56:36;11.20;;;8.18;;
19446;SDS011;9862;49.462;11.054;2023-02-22T08:59:03;15.10;;;9.27;;
19446;SDS011;9862;49.462;11.054;2023-02-22T09:01:30;16.77;;;8.77;;
19446;SDS011;9862;49.462;11.054;2023-02-22T09:03:58;12.82;;;8.30;;
19446;SDS011;9862;49.462;11.054;2023-02-22T09:06:24;14.43;;;7.95;;
19446;SDS011;9862;49.462;11.054;2023-02-22T09:08:51;14.80;;;8.55;;
19446;SDS011;9862;49.462;11.054;2023-02-22T09:11:18;15.30;;;8.57;;
19446;SDS011;9862;49.462;11.054;2023-02-22T09:13:46;15.65;;;8.07;;
19446;SDS011;9862;49.462;11.054;2023-02-22T09:16:12;11.38;;;7.75;;
19446;SDS011;9862;49.462;11.054;2023-02-22T09:18:39;10.93;;;7.90;;
19446;SDS011;9862;49.462;11.054;2023-02-22T09:21:06;12.15;;;7.70;;
19446;SDS011;9862;49.462;11.054;2023-02-22T09:23:32;13.57;;;8.35;;
19446;SDS011;9862;49.462;11.054;2023-02-22T09:25:59;14.07;;;8.93;;
19446;SDS011;9862;49.462;11.054;2023-02-22T09:28:26;13.95;;;8.15;;
19446;SDS011;9862;49.462;11.054;2023-02-22T09:30:54;16.90;;;8.90;;
19446;SDS011;9862;49.462;11.054;2023-02-22T09:33:21;13.93;;;8.43;;
19446;SDS011;9862;49.462;11.054;2023-02-22T09:35:48;13.30;;;9.13;;
19446;SDS011;9862;49.462;11.054;2023-02-22T09:38:15;12.43;;;7.75;;
19446;SDS011;9862;49.462;11.054;2023-02-22T09:40:48;13.38;;;8.10;;
19446;SDS011;9862;49.462;11.054;2023-02-22T09:43:20;13.20;;;8.02;;
19446;SDS011;9862;49.462;11.054;2023-02-22T09:48:57;14.00;;;7.82;;
19446;SDS011;9862;49.462;11.054;2023-02-22T09:51:27;11.77;;;7.55;;
19446;SDS011;9862;49.462;11.054;2023-02-22T09:53:59;13.40;;;8.48;;
19446;SDS011;9862;49.462;11.054;2023-02-22T09:56:30;15.75;;;8.23;;
19446;SDS011;9862;49.462;11.054;2023-02-22T09:58:59;12.88;;;8.30;;
19446;SDS011;9862;49.462;11.054;2023-02-22T10:01:30;11.25;;;7.70;;
19446;SDS011;9862;49.462;11.054;2023-02-22T10:04:03;16.55;;;8.48;;
19446;SDS011;9862;49.462;11.054;2023-02-22T10:06:33;11.80;;;7.75;;
19446;SDS011;9862;49.462;11.054;2023-02-22T10:09:02;13.52;;;7.53;;
19446;SDS011;9862;49.462;11.054;2023-02-22T10:11:51;11.57;;;7.47;;
19446;SDS011;9862;49.462;11.054;2023-02-22T10:17:31;11.40;;;8.02;;
19446;SDS011;9862;49.462;11.054;2023-02-22T10:20:15;11.55;;;7.63;;
19446;SDS011;9862;49.462;11.054;2023-02-22T10:22:51;11.07;;;6.97;;
19446;SDS011;9862;49.462;11.054;2023-02-22T10:25:25;9.68;;;7.00;;
19446;SDS011;9862;49.462;11.054;2023-02-22T10:27:59;11.32;;;6.82;;
19446;SDS011;9862;49.462;11.054;2023-02-22T10:30:31;10.48;;;7.65;;
19446;SDS011;9862;49.462;11.054;2023-02-22T10:33:05;11.10;;;7.45;;
19446;SDS011;9862;49.462;11.054;2023-02-22T10:35:37;12.07;;;8.15;;
19446;SDS011;9862;49.462;11.054;2023-02-22T10:38:10;12.82;;;7.30;;
19446;SDS011;9862;49.462;11.054;2023-02-22T10:40:42;10.82;;;7.22;;
19446;SDS011;9862;49.462;11.054;2023-02-22T10:43:13;8.68;;;6.57;;
19446;SDS011;9862;49.462;11.054;2023-02-22T10:45:39;12.05;;;7.30;;
19446;SDS011;9862;49.462;11.054;2023-02-22T10:48:08;14.77;;;7.60;;
19446;SDS011;9862;49.462;11.054;2023-02-22T10:50:39;10.00;;;7.43;;
19446;SDS011;9862;49.462;11.054;2023-02-22T10:53:08;14.20;;;7.68;;
19446;SDS011;9862;49.462;11.054;2023-02-22T10:55:35;14.65;;;7.47;;
19446;SDS011;9862;49.462;11.054;2023-02-22T10:58:39;12.50;;;7.10;;
19446;SDS011;9862;49.462;11.054;2023-02-22T11:01:21;12.00;;;6.90;;
19446;SDS011;9862;49.462;11.054;2023-02-22T11:03:55;12.95;;;7.55;;
19446;SDS011;9862;49.462;11.054;2023-02-22T11:06:22;12.38;;;8.07;;
19446;SDS011;9862;49.462;11.054;2023-02-22T11:08:49;10.07;;;7.13;;
19446;SDS011;9862;49.462;11.054;2023-02-22T11:11:21;9.20;;;6.50;;
19446;SDS011;9862;49.462;11.054;2023-02-22T11:13:52;10.98;;;7.85;;
19446;SDS011;9862;49.462;11.054;2023-02-22T11:16:24;12.43;;;7.10;;
19446;SDS011;9862;49.462;11.054;2023-02-22T11:18:58;11.48;;;6.63;;
19446;SDS011;9862;49.462;11.054;2023-02-22T11:21:26;9.20;;;6.32;;
19446;SDS011;9862;49.462;11.054;2023-02-22T11:24:03;7.90;;;5.85;;
19446;SDS011;9862;49.462;11.054;2023-02-22T11:26:38;11.38;;;7.47;;
19446;SDS011;9862;49.462;11.054;2023-02-22T11:29:10;17.25;;;9.65;;
19446;SDS011;9862;49.462;11.054;2023-02-22T11:31:42;14.32;;;8.25;;
19446;SDS011;9862;49.462;11.054;2023-02-22T11:34:26;10.38;;;7.15;;
19446;SDS011;9862;49.462;11.054;2023-02-22T11:36:55;13.55;;;7.90;;
19446;SDS011;9862;49.462;11.054;2023-02-22T11:39:23;13.88;;;7.72;;
19446;SDS011;9862;49.462;11.054;2023-02-22T11:41:53;14.35;;;8.00;;
19446;SDS011;9862;49.462;11.054;2023-02-22T11:44:22;12.20;;;7.30;;
19446;SDS011;9862;49.462;11.054;2023-02-22T11:46:50;12.15;;;7.00;;
19446;SDS011;9862;49.462;11.054;2023-02-22T11:49:19;10.18;;;6.70;;
19446;SDS011;9862;49.462;11.054;2023-02-22T11:51:58;14.93;;;8.90;;
19446;SDS011;9862;49.462;11.054;2023-02-22T11:54:43;11.43;;;7.53;;
19446;SDS011;9862;49.462;11.054;2023-02-22T11:57:28;12.75;;;6.88;;
19446;SDS011;9862;49.462;11.054;2023-02-22T12:00:06;11.43;;;6.45;;
19446;SDS011;9862;49.462;11.054;2023-02-22T12:02:50;10.13;;;6.88;;
19446;SDS011;9862;49.462;11.054;2023-02-22T12:05:35;12.77;;;7.75;;
19446;SDS011;9862;49.462;11.054;2023-02-22T12:08:24;11.23;;;7.22;;
19446;SDS011;9862;49.462;11.054;2023-02-22T12:11:00;9.80;;;6.05;;
19446;SDS011;9862;49.462;11.054;2023-02-22T12:13:39;10.27;;;7.25;;
19446;SDS011;9862;49.462;11.054;2023-02-22T12:16:18;10.93;;;6.65;;
19446;SDS011;9862;49.462;11.054;2023-02-22T12:18:55;9.13;;;6.57;;
19446;SDS011;9862;49.462;11.054;2023-02-22T12:21:33;10.48;;;7.07;;
19446;SDS011;9862;49.462;11.054;2023-02-22T12:24:06;11.70;;;6.40;;
19446;SDS011;9862;49.462;11.054;2023-02-22T12:26:38;10.95;;;5.55;;
19446;SDS011;9862;49.462;11.054;2023-02-22T12:29:10;8.35;;;5.20;;
19446;SDS011;9862;49.462;11.054;2023-02-22T12:31:44;7.57;;;5.50;;
19446;SDS011;9862;49.462;11.054;2023-02-22T12:34:14;6.60;;;4.93;;
19446;SDS011;9862;49.462;11.054;2023-02-22T12:36:52;7.88;;;4.80;;
19446;SDS011;9862;49.462;11.054;2023-02-22T12:39:28;7.82;;;5.18;;
19446;SDS011;9862;49.462;11.054;2023-02-22T12:42:05;7.32;;;4.93;;
19446;SDS011;9862;49.462;11.054;2023-02-22T12:44:40;7.63;;;4.60;;
19446;SDS011;9862;49.462;11.054;2023-02-22T12:47:13;8.30;;;4.95;;
19446;SDS011;9862;49.462;11.054;2023-02-22T12:49:44;5.50;;;4.20;;
19446;SDS011;9862;49.462;11.054;2023-02-22T12:52:18;9.00;;;4.93;;
19446;SDS011;9862;49.462;11.054;2023-02-22T12:54:58;9.57;;;5.20;;
19446;SDS011;9862;49.462;11.054;2023-02-22T12:57:31;8.35;;;5.40;;
19446;SDS011;9862;49.462;11.054;2023-02-22T13:00:08;6.25;;;4.80;;
19446;SDS011;9862;49.462;11.054;2023-02-22T13:02:44;7.97;;;5.07;;
19446;SDS011;9862;49.462;11.054;2023-02-22T13:05:20;6.85;;;5.13;;
19446;SDS011;9862;49.462;11.054;2023-02-22T13:07:47;7.80;;;4.85;;
19446;SDS011;9862;49.462;11.054;2023-02-22T13:10:29;8.63;;;4.95;;
19446;SDS011;9862;49.462;11.054;2023-02-22T13:13:06;7.28;;;4.60;;
19446;SDS011;9862;49.462;11.054;2023-02-22T13:15:44;7.00;;;4.85;;
19446;SDS011;9862;49.462;11.054;2023-02-22T13:18:19;6.90;;;4.80;;
19446;SDS011;9862;49.462;11.054;2023-02-22T13:20:57;5.85;;;3.83;;
19446;SDS011;9862;49.462;11.054;2023-02-22T13:23:35;5.57;;;4.00;;
19446;SDS011;9862;49.462;11.054;2023-02-22T13:26:09;7.47;;;4.75;;
19446;SDS011;9862;49.462;11.054;2023-02-22T13:28:42;6.75;;;4.13;;
19446;SDS011;9862;49.462;11.054;2023-02-22T13:31:21;9.43;;;5.20;;
19446;SDS011;9862;49.462;11.054;2023-02-22T13:34:02;6.82;;;5.03;;
19446;SDS011;9862;49.462;11.054;2023-02-22T13:36:44;7.15;;;4.57;;
19446;SDS011;9862;49.462;11.054;2023-02-22T13:39:30;7.03;;;4.40;;
19446;SDS011;9862;49.462;11.054;2023-02-22T13:42:15;8.55;;;4.53;;
19446;SDS011;9862;49.462;11.054;2023-02-22T13:45:18;4.90;;;3.75;;
19446;SDS011;9862;49.462;11.054;2023-02-22T13:48:14;5.55;;;3.85;;
19446;SDS011;9862;49.462;11.054;2023-02-22T13:51:03;6.05;;;4.07;;
19446;SDS011;9862;49.462;11.054;2023-02-22T13:53:40;8.88;;;4.38;;
19446;SDS011;9862;49.462;11.054;2023-02-22T13:56:13;8.90;;;4.63;;
19446;SDS011;9862;49.462;11.054;2023-02-22T13:58:51;6.68;;;3.45;;
19446;SDS011;9862;49.462;11.054;2023-02-22T14:01:35;7.50;;;3.97;;
19446;SDS011;9862;49.462;11.054;2023-02-22T14:04:21;6.78;;;3.60;;
19446;SDS011;9862;49.462;11.054;2023-02-22T14:07:03;5.05;;;2.80;;
19446;SDS011;9862;49.462;11.054;2023-02-22T14:10:15;13.23;;;6.43;;
19446;SDS011;9862;49.462;11.054;2023-02-22T14:13:14;12.93;;;7.72;;
19446;SDS011;9862;49.462;11.054;2023-02-22T14:18:44;3.90;;;2.92;;
19446;SDS011;9862;49.462;11.054;2023-02-22T14:21:13;5.95;;;3.05;;
19446;SDS011;9862;49.462;11.054;2023-02-22T14:23:41;4.32;;;3.10;;
19446;SDS011;9862;49.462;11.054;2023-02-22T14:26:12;5.63;;;2.90;;
19446;SDS011;9862;49.462;11.054;2023-02-22T14:28:44;5.20;;;3.63;;
19446;SDS011;9862;49.462;11.054;2023-02-22T14:31:17;7.97;;;5.05;;
19446;SDS011;9862;49.462;11.054;2023-02-22T14:33:53;6.22;;;3.53;;
19446;SDS011;9862;49.462;11.054;2023-02-22T14:36:22;6.78;;;3.00;;
19446;SDS011;9862;49.462;11.054;2023-02-22T14:38:53;3.05;;;2.50;;
19446;SDS011;9862;49.462;11.054;2023-02-22T14:41:29;9.55;;;4.68;;
19446;SDS011;9862;49.462;11.054;2023-02-22T14:43:57;6.03;;;3.42;;
19446;SDS011;9862;49.462;11.054;2023-02-22T14:46:29;6.57;;;3.03;;
19446;SDS011;9862;49.462;11.054;2023-02-22T14:49:00;4.70;;;3.00;;
19446;SDS011;9862;49.462;11.054;2023-02-22T14:51:39;4.40;;;3.25;;
19446;SDS011;9862;49.462;11.054;2023-02-22T14:54:08;5.20;;;3.60;;
19446;SDS011;9862;49.462;11.054;2023-02-22T14:56:43;9.52;;;4.32;;
19446;SDS011;9862;49.462;11.054;2023-02-22T14:59:16;6.63;;;4.15;;
19446;SDS011;9862;49.462;11.054;2023-02-22T15:01:48;5.97;;;3.90;;
19446;SDS011;9862;49.462;11.054;2023-02-22T15:04:18;9.00;;;4.40;;
19446;SDS011;9862;49.462;11.054;2023-02-22T15:06:47;5.57;;;4.00;;
19446;SDS011;9862;49.462;11.054;2023-02-22T15:09:15;7.05;;;4.10;;
19446;SDS011;9862;49.462;11.054;2023-02-22T15:11:49;7.32;;;3.88;;
19446;SDS011;9862;49.462;11.054;2023-02-22T15:14:17;6.13;;;3.85;;
19446;SDS011;9862;49.462;11.054;2023-02-22T15:16:46;5.93;;;3.63;;
19446;SDS011;9862;49.462;11.054;2023-02-22T15:19:16;9.55;;;4.07;;
19446;SDS011;9862;49.462;11.054;2023-02-22T15:21:49;5.32;;;3.65;;